sensor_id;sensor_type;location;lat;lon;timestamp;P1;durP1;ratioP1;P2;durP2;ratioP2
9214;SDS011;4642;51.364;6.788;2023-06-22T00:02:12;4.43;;;2.10;;
9214;SDS011;4642;51.364;6.788;2023-06-22T00:04:38;2.93;;;2.23;;
9214;SDS011;4642;51.364;6.788;2023-06-22T00:07:03;2.90;;;2.20;;
9214;SDS011;4642;51.364;6.788;2023-06-22T00:09:29;2.60;;;1.93;;
9214;SDS011;4642;51.364;6.788;2023-06-22T00:11:56;2.60;;;1.97;;
9214;SDS011;4642;51.364;6.788;2023-06-22T00:14:21;5.33;;;2.63;;
9214;SDS011;4642;51.364;6.788;2023-06-22T00:16:47;3.27;;;2.20;;
9214;SDS011;4642;51.364;6.788;2023-06-22T00:19:13;3.93;;;2.30;;
9214;SDS011;4642;51.364;6.788;2023-06-22T00:21:44;3.10;;;2.23;;
9214;SDS011;4642;51.364;6.788;2023-06-22T00:24:12;2.63;;;2.20;;
9214;SDS011;4642;51.364;6.788;2023-06-22T00:26:37;3.00;;;2.13;;
9214;SDS011;4642;51.364;6.788;2023-06-22T00:29:03;4.80;;;2.73;;
9214;SDS011;4642;51.364;6.788;2023-06-22T00:31:29;4.53;;;2.57;;
9214;SDS011;4642;51.364;6.788;2023-06-22T00:33:54;3.50;;;2.20;;
9214;SDS011;4642;51.364;6.788;2023-06-22T00:36:20;2.90;;;2.63;;
9214;SDS011;4642;51.364;6.788;2023-06-22T00:38:45;4.17;;;2.63;;
9214;SDS011;4642;51.364;6.788;2023-06-22T00:41:11;4.47;;;2.60;;
9214;SDS011;4642;51.364;6.788;2023-06-22T00:43:36;5.03;;;2.80;;
9214;SDS011;4642;51.364;6.788;2023-06-22T00:46:02;3.70;;;2.50;;
9214;SDS011;4642;51.364;6.788;2023-06-22T00:48:28;3.80;;;2.80;;
9214;SDS011;4642;51.364;6.788;2023-06-22T00:50:53;4.67;;;2.93;;
9214;SDS011;4642;51.364;6.788;2023-06-22T00:53:20;3.50;;;2.40;;
9214;SDS011;4642;51.364;6.788;2023-06-22T00:55:46;5.00;;;2.10;;
9214;SDS011;4642;51.364;6.788;2023-06-22T00:58:12;4.07;;;2.80;;
9214;SDS011;4642;51.364;6.788;2023-06-22T01:00:39;5.20;;;2.90;;
9214;SDS011;4642;51.364;6.788;2023-06-22T01:03:05;3.57;;;2.47;;
9214;SDS011;4642;51.364;6.788;2023-06-22T01:05:34;5.67;;;3.33;;
9214;SDS011;4642;51.364;6.788;2023-06-22T01:10:43;5.37;;;3.27;;
9214;SDS011;4642;51.364;6.788;2023-06-22T01:13:16;5.20;;;3.03;;
9214;SDS011;4642;51.364;6.788;2023-06-22T01:16:03;5.70;;;3.23;;
9214;SDS011;4642;51.364;6.788;2023-06-22T01:18:35;5.63;;;2.87;;
9214;SDS011;4642;51.364;6.788;2023-06-22T01:21:04;6.43;;;2.90;;
9214;SDS011;4642;51.364;6.788;2023-06-22T01:29:08;6.07;;;3.10;;
9214;SDS011;4642;51.364;6.788;2023-06-22T01:31:39;3.43;;;3.00;;
9214;SDS011;4642;51.364;6.788;2023-06-22T01:34:06;6.33;;;3.07;;
9214;SDS011;4642;51.364;6.788;2023-06-22T01:36:33;3.97;;;2.73;;
9214;SDS011;4642;51.364;6.788;2023-06-22T01:39:00;6.30;;;3.10;;
9214;SDS011;4642;51.364;6.788;2023-06-22T01:41:28;6.97;;;3.07;;
9214;SDS011;4642;51.364;6.788;2023-06-22T01:43:56;5.97;;;3.00;;
9214;SDS011;4642;51.364;6.788;2023-06-22T01:46:22;3.93;;;2.87;;
9214;SDS011;4642;51.364;6.788;2023-06-22T01:48:48;4.17;;;3.17;;
9214;SDS011;4642;51.364;6.788;2023-06-22T01:51:15;3.67;;;3.00;;
9214;SDS011;4642;51.364;6.788;2023-06-22T01:53:41;6.20;;;3.13;;
9214;SDS011;4642;51.364;6.788;2023-06-22T01:56:07;8.63;;;3.63;;
9214;SDS011;4642;51.364;6.788;2023-06-22T01:58:33;3.60;;;2.97;;
9214;SDS011;4642;51.364;6.788;2023-06-22T02:01:10;6.80;;;3.40;;
9214;SDS011;4642;51.364;6.788;2023-06-22T02:03:38;4.83;;;3.13;;
9214;SDS011;4642;51.364;6.788;2023-06-22T02:06:16;5.60;;;3.60;;
9214;SDS011;4642;51.364;6.788;2023-06-22T02:08:47;4.40;;;2.70;;
9214;SDS011;4642;51.364;6.788;2023-06-22T02:11:20;3.97;;;2.60;;
9214;SDS011;4642;51.364;6.788;2023-06-22T02:13:47;3.77;;;3.10;;
9214;SDS011;4642;51.364;6.788;2023-06-22T02:16:13;3.73;;;2.70;;
9214;SDS011;4642;51.364;6.788;2023-06-22T02:18:47;7.60;;;3.50;;
9214;SDS011;4642;51.364;6.788;2023-06-22T02:21:15;4.77;;;2.70;;
9214;SDS011;4642;51.364;6.788;2023-06-22T02:23:41;5.00;;;2.93;;
9214;SDS011;4642;51.364;6.788;2023-06-22T02:26:07;4.73;;;2.93;;
9214;SDS011;4642;51.364;6.788;2023-06-22T02:28:33;7.73;;;3.57;;
9214;SDS011;4642;51.364;6.788;2023-06-22T02:30:58;4.40;;;3.07;;
9214;SDS011;4642;51.364;6.788;2023-06-22T02:33:24;4.63;;;3.27;;
9214;SDS011;4642;51.364;6.788;2023-06-22T02:35:50;7.47;;;3.20;;
9214;SDS011;4642;51.364;6.788;2023-06-22T02:38:15;3.73;;;3.43;;
9214;SDS011;4642;51.364;6.788;2023-06-22T02:40:42;7.17;;;3.67;;
9214;SDS011;4642;51.364;6.788;2023-06-22T02:43:08;7.40;;;3.37;;
9214;SDS011;4642;51.364;6.788;2023-06-22T02:45:33;5.97;;;3.30;;
9214;SDS011;4642;51.364;6.788;2023-06-22T02:47:59;5.80;;;3.37;;
9214;SDS011;4642;51.364;6.788;2023-06-22T02:50:24;5.43;;;3.40;;
9214;SDS011;4642;51.364;6.788;2023-06-22T02:52:50;5.83;;;3.80;;
9214;SDS011;4642;51.364;6.788;2023-06-22T02:55:15;5.33;;;3.50;;
9214;SDS011;4642;51.364;6.788;2023-06-22T02:57:41;8.80;;;4.17;;
9214;SDS011;4642;51.364;6.788;2023-06-22T03:00:09;5.43;;;3.27;;
9214;SDS011;4642;51.364;6.788;2023-06-22T03:02:45;6.93;;;3.53;;
9214;SDS011;4642;51.364;6.788;2023-06-22T03:05:12;4.20;;;3.27;;
9214;SDS011;4642;51.364;6.788;2023-06-22T03:07:41;5.07;;;3.70;;
9214;SDS011;4642;51.364;6.788;2023-06-22T03:10:11;6.07;;;3.43;;
9214;SDS011;4642;51.364;6.788;2023-06-22T03:12:38;5.30;;;3.43;;
9214;SDS011;4642;51.364;6.788;2023-06-22T03:15:07;4.17;;;3.60;;
9214;SDS011;4642;51.364;6.788;2023-06-22T03:17:35;5.43;;;3.70;;
9214;SDS011;4642;51.364;6.788;2023-06-22T03:20:01;6.47;;;4.10;;
9214;SDS011;4642;51.364;6.788;2023-06-22T03:22:33;6.43;;;4.13;;
9214;SDS011;4642;51.364;6.788;2023-06-22T03:25:00;10.37;;;4.20;;
9214;SDS011;4642;51.364;6.788;2023-06-22T03:27:26;6.70;;;4.03;;
9214;SDS011;4642;51.364;6.788;2023-06-22T03:29:51;6.23;;;4.17;;
9214;SDS011;4642;51.364;6.788;2023-06-22T03:32:17;5.97;;;3.97;;
9214;SDS011;4642;51.364;6.788;2023-06-22T03:34:42;5.90;;;3.97;;
9214;SDS011;4642;51.364;6.788;2023-06-22T03:37:12;6.87;;;4.07;;
9214;SDS011;4642;51.364;6.788;2023-06-22T03:39:39;6.47;;;4.20;;
9214;SDS011;4642;51.364;6.788;2023-06-22T03:42:05;5.37;;;3.80;;
9214;SDS011;4642;51.364;6.788;2023-06-22T03:44:31;7.17;;;3.70;;
9214;SDS011;4642;51.364;6.788;2023-06-22T03:46:56;3.73;;;3.33;;
9214;SDS011;4642;51.364;6.788;2023-06-22T03:49:22;3.80;;;2.80;;
9214;SDS011;4642;51.364;6.788;2023-06-22T03:51:47;4.97;;;3.83;;
9214;SDS011;4642;51.364;6.788;2023-06-22T03:54:13;5.57;;;4.00;;
9214;SDS011;4642;51.364;6.788;2023-06-22T03:56:39;5.57;;;3.97;;
9214;SDS011;4642;51.364;6.788;2023-06-22T03:59:04;4.90;;;4.40;;
9214;SDS011;4642;51.364;6.788;2023-06-22T04:01:30;7.97;;;3.90;;
9214;SDS011;4642;51.364;6.788;2023-06-22T04:03:55;10.93;;;6.17;;
9214;SDS011;4642;51.364;6.788;2023-06-22T04:06:21;9.10;;;5.90;;
9214;SDS011;4642;51.364;6.788;2023-06-22T04:08:47;7.77;;;5.13;;
9214;SDS011;4642;51.364;6.788;2023-06-22T04:11:15;7.20;;;3.93;;
9214;SDS011;4642;51.364;6.788;2023-06-22T04:13:44;6.97;;;4.30;;
9214;SDS011;4642;51.364;6.788;2023-06-22T04:16:09;6.20;;;4.30;;
9214;SDS011;4642;51.364;6.788;2023-06-22T04:18:35;9.77;;;6.43;;
9214;SDS011;4642;51.364;6.788;2023-06-22T04:21:01;6.73;;;4.47;;
9214;SDS011;4642;51.364;6.788;2023-06-22T04:23:27;5.63;;;4.10;;
9214;SDS011;4642;51.364;6.788;2023-06-22T04:25:53;6.87;;;4.57;;
9214;SDS011;4642;51.364;6.788;2023-06-22T04:28:18;5.50;;;4.63;;
9214;SDS011;4642;51.364;6.788;2023-06-22T04:30:44;7.70;;;4.33;;
9214;SDS011;4642;51.364;6.788;2023-06-22T04:33:13;6.10;;;4.03;;
9214;SDS011;4642;51.364;6.788;2023-06-22T04:35:39;4.17;;;3.60;;
9214;SDS011;4642;51.364;6.788;2023-06-22T04:38:07;6.43;;;4.33;;
9214;SDS011;4642;51.364;6.788;2023-06-22T04:40:33;5.97;;;3.53;;
9214;SDS011;4642;51.364;6.788;2023-06-22T04:42:58;5.73;;;3.80;;
9214;SDS011;4642;51.364;6.788;2023-06-22T04:45:27;6.83;;;4.00;;
9214;SDS011;4642;51.364;6.788;2023-06-22T04:47:54;6.50;;;4.50;;
9214;SDS011;4642;51.364;6.788;2023-06-22T04:50:19;6.43;;;4.20;;
9214;SDS011;4642;51.364;6.788;2023-06-22T04:52:46;4.77;;;3.37;;
9214;SDS011;4642;51.364;6.788;2023-06-22T04:55:12;5.23;;;4.57;;
9214;SDS011;4642;51.364;6.788;2023-06-22T04:57:38;4.90;;;4.37;;
9214;SDS011;4642;51.364;6.788;2023-06-22T05:00:04;6.80;;;5.63;;
9214;SDS011;4642;51.364;6.788;2023-06-22T05:02:37;8.50;;;6.20;;
9214;SDS011;4642;51.364;6.788;2023-06-22T05:05:04;9.60;;;5.20;;
9214;SDS011;4642;51.364;6.788;2023-06-22T05:07:32;14.10;;;8.93;;
9214;SDS011;4642;51.364;6.788;2023-06-22T05:09:58;8.03;;;6.07;;
9214;SDS011;4642;51.364;6.788;2023-06-22T05:12:24;8.50;;;7.63;;
9214;SDS011;4642;51.364;6.788;2023-06-22T05:14:50;10.80;;;7.13;;
9214;SDS011;4642;51.364;6.788;2023-06-22T05:17:15;8.83;;;7.00;;
9214;SDS011;4642;51.364;6.788;2023-06-22T05:19:43;11.40;;;8.20;;
9214;SDS011;4642;51.364;6.788;2023-06-22T05:22:14;9.07;;;7.07;;
9214;SDS011;4642;51.364;6.788;2023-06-22T05:24:40;8.63;;;6.47;;
9214;SDS011;4642;51.364;6.788;2023-06-22T05:27:05;9.07;;;5.40;;
9214;SDS011;4642;51.364;6.788;2023-06-22T05:29:31;7.50;;;5.63;;
9214;SDS011;4642;51.364;6.788;2023-06-22T05:31:56;8.80;;;7.03;;
9214;SDS011;4642;51.364;6.788;2023-06-22T05:34:22;10.40;;;7.67;;
9214;SDS011;4642;51.364;6.788;2023-06-22T05:36:48;12.13;;;6.77;;
9214;SDS011;4642;51.364;6.788;2023-06-22T05:39:13;9.10;;;7.03;;
9214;SDS011;4642;51.364;6.788;2023-06-22T05:41:40;11.37;;;9.40;;
9214;SDS011;4642;51.364;6.788;2023-06-22T05:44:06;13.00;;;8.53;;
9214;SDS011;4642;51.364;6.788;2023-06-22T05:46:32;14.50;;;9.60;;
9214;SDS011;4642;51.364;6.788;2023-06-22T05:48:57;12.67;;;9.47;;
9214;SDS011;4642;51.364;6.788;2023-06-22T05:51:23;11.07;;;8.93;;
9214;SDS011;4642;51.364;6.788;2023-06-22T05:53:48;12.03;;;9.27;;
9214;SDS011;4642;51.364;6.788;2023-06-22T05:56:17;11.43;;;8.73;;
9214;SDS011;4642;51.364;6.788;2023-06-22T05:58:43;12.60;;;9.37;;
9214;SDS011;4642;51.364;6.788;2023-06-22T06:01:09;10.40;;;8.77;;
9214;SDS011;4642;51.364;6.788;2023-06-22T06:03:34;12.37;;;10.13;;
9214;SDS011;4642;51.364;6.788;2023-06-22T06:06:06;13.17;;;10.17;;
9214;SDS011;4642;51.364;6.788;2023-06-22T06:08:32;13.40;;;10.13;;
9214;SDS011;4642;51.364;6.788;2023-06-22T06:10:57;18.50;;;12.07;;
9214;SDS011;4642;51.364;6.788;2023-06-22T06:13:23;15.33;;;12.63;;
9214;SDS011;4642;51.364;6.788;2023-06-22T06:15:49;15.87;;;12.77;;
9214;SDS011;4642;51.364;6.788;2023-06-22T06:18:16;17.50;;;14.13;;
9214;SDS011;4642;51.364;6.788;2023-06-22T06:20:42;16.27;;;12.97;;
9214;SDS011;4642;51.364;6.788;2023-06-22T06:23:08;20.17;;;13.00;;
9214;SDS011;4642;51.364;6.788;2023-06-22T06:25:33;15.47;;;13.87;;
9214;SDS011;4642;51.364;6.788;2023-06-22T06:27:59;14.70;;;12.67;;
9214;SDS011;4642;51.364;6.788;2023-06-22T06:30:24;18.53;;;13.83;;
9214;SDS011;4642;51.364;6.788;2023-06-22T06:32:50;16.93;;;13.83;;
9214;SDS011;4642;51.364;6.788;2023-06-22T06:35:16;17.43;;;14.30;;
9214;SDS011;4642;51.364;6.788;2023-06-22T06:37:44;15.93;;;13.07;;
9214;SDS011;4642;51.364;6.788;2023-06-22T06:40:11;16.50;;;13.90;;
9214;SDS011;4642;51.364;6.788;2023-06-22T06:42:38;17.53;;;14.90;;
9214;SDS011;4642;51.364;6.788;2023-06-22T06:45:10;21.37;;;14.43;;
9214;SDS011;4642;51.364;6.788;2023-06-22T06:47:36;16.77;;;15.17;;
9214;SDS011;4642;51.364;6.788;2023-06-22T06:50:03;21.30;;;15.17;;
9214;SDS011;4642;51.364;6.788;2023-06-22T06:52:29;17.63;;;14.63;;
9214;SDS011;4642;51.364;6.788;2023-06-22T06:54:55;17.03;;;15.23;;
9214;SDS011;4642;51.364;6.788;2023-06-22T06:57:20;18.03;;;15.97;;
9214;SDS011;4642;51.364;6.788;2023-06-22T06:59:47;18.60;;;15.80;;
9214;SDS011;4642;51.364;6.788;2023-06-22T07:02:13;19.17;;;16.93;;
9214;SDS011;4642;51.364;6.788;2023-06-22T07:04:39;18.30;;;16.43;;
9214;SDS011;4642;51.364;6.788;2023-06-22T07:07:05;17.67;;;15.60;;
9214;SDS011;4642;51.364;6.788;2023-06-22T07:09:30;20.43;;;16.63;;
9214;SDS011;4642;51.364;6.788;2023-06-22T07:11:56;19.90;;;17.50;;
9214;SDS011;4642;51.364;6.788;2023-06-22T07:14:21;19.13;;;17.13;;
9214;SDS011;4642;51.364;6.788;2023-06-22T07:16:47;19.63;;;17.53;;
9214;SDS011;4642;51.364;6.788;2023-06-22T07:19:12;19.93;;;17.33;;
9214;SDS011;4642;51.364;6.788;2023-06-22T07:21:38;20.13;;;17.27;;
9214;SDS011;4642;51.364;6.788;2023-06-22T07:24:07;19.90;;;17.80;;
9214;SDS011;4642;51.364;6.788;2023-06-22T07:26:33;20.83;;;18.67;;
9214;SDS011;4642;51.364;6.788;2023-06-22T07:28:58;20.10;;;18.10;;
9214;SDS011;4642;51.364;6.788;2023-06-22T07:31:24;21.47;;;19.10;;
9214;SDS011;4642;51.364;6.788;2023-06-22T07:33:50;25.37;;;19.20;;
9214;SDS011;4642;51.364;6.788;2023-06-22T07:36:16;22.73;;;19.13;;
9214;SDS011;4642;51.364;6.788;2023-06-22T07:38:42;26.13;;;19.77;;
9214;SDS011;4642;51.364;6.788;2023-06-22T07:41:08;20.73;;;18.17;;
9214;SDS011;4642;51.364;6.788;2023-06-22T07:43:34;20.97;;;18.77;;
9214;SDS011;4642;51.364;6.788;2023-06-22T07:46:02;21.00;;;18.80;;
9214;SDS011;4642;51.364;6.788;2023-06-22T07:48:30;22.93;;;18.80;;
9214;SDS011;4642;51.364;6.788;2023-06-22T07:50:56;25.10;;;19.40;;
9214;SDS011;4642;51.364;6.788;2023-06-22T07:53:22;21.80;;;18.57;;
9214;SDS011;4642;51.364;6.788;2023-06-22T07:55:48;20.63;;;18.60;;
9214;SDS011;4642;51.364;6.788;2023-06-22T07:58:14;22.53;;;19.97;;
9214;SDS011;4642;51.364;6.788;2023-06-22T08:00:40;23.93;;;19.67;;
9214;SDS011;4642;51.364;6.788;2023-06-22T08:03:06;21.60;;;19.13;;
9214;SDS011;4642;51.364;6.788;2023-06-22T08:05:32;22.03;;;18.63;;
9214;SDS011;4642;51.364;6.788;2023-06-22T08:07:57;21.33;;;19.03;;
9214;SDS011;4642;51.364;6.788;2023-06-22T08:10:23;21.87;;;18.13;;
9214;SDS011;4642;51.364;6.788;2023-06-22T08:12:49;20.20;;;18.20;;
9214;SDS011;4642;51.364;6.788;2023-06-22T08:15:14;20.53;;;18.20;;
9214;SDS011;4642;51.364;6.788;2023-06-22T08:17:40;21.90;;;18.80;;
9214;SDS011;4642;51.364;6.788;2023-06-22T08:20:06;20.97;;;18.80;;
9214;SDS011;4642;51.364;6.788;2023-06-22T08:22:36;20.60;;;17.80;;
9214;SDS011;4642;51.364;6.788;2023-06-22T08:25:03;20.80;;;18.77;;
9214;SDS011;4642;51.364;6.788;2023-06-22T08:27:31;22.53;;;19.13;;
9214;SDS011;4642;51.364;6.788;2023-06-22T08:29:58;22.23;;;19.40;;
9214;SDS011;4642;51.364;6.788;2023-06-22T08:32:24;22.17;;;19.77;;
9214;SDS011;4642;51.364;6.788;2023-06-22T08:34:52;21.67;;;19.30;;
9214;SDS011;4642;51.364;6.788;2023-06-22T08:37:18;22.07;;;18.57;;
9214;SDS011;4642;51.364;6.788;2023-06-22T08:39:44;20.33;;;18.33;;
9214;SDS011;4642;51.364;6.788;2023-06-22T08:42:09;19.33;;;17.37;;
9214;SDS011;4642;51.364;6.788;2023-06-22T08:44:35;21.27;;;19.07;;
9214;SDS011;4642;51.364;6.788;2023-06-22T08:47:01;22.33;;;19.17;;
9214;SDS011;4642;51.364;6.788;2023-06-22T08:49:27;23.07;;;19.13;;
9214;SDS011;4642;51.364;6.788;2023-06-22T08:51:52;20.97;;;18.77;;
9214;SDS011;4642;51.364;6.788;2023-06-22T08:54:21;20.97;;;18.80;;
9214;SDS011;4642;51.364;6.788;2023-06-22T08:56:46;22.00;;;19.53;;
9214;SDS011;4642;51.364;6.788;2023-06-22T08:59:12;22.00;;;19.70;;
9214;SDS011;4642;51.364;6.788;2023-06-22T09:01:37;21.90;;;19.50;;
9214;SDS011;4642;51.364;6.788;2023-06-22T09:04:03;19.67;;;17.77;;
9214;SDS011;4642;51.364;6.788;2023-06-22T09:06:31;20.87;;;17.87;;
9214;SDS011;4642;51.364;6.788;2023-06-22T09:08:57;22.03;;;18.37;;
9214;SDS011;4642;51.364;6.788;2023-06-22T09:11:24;20.67;;;18.53;;
9214;SDS011;4642;51.364;6.788;2023-06-22T09:13:50;21.40;;;18.30;;
9214;SDS011;4642;51.364;6.788;2023-06-22T09:16:17;21.53;;;19.23;;
9214;SDS011;4642;51.364;6.788;2023-06-22T09:18:45;19.10;;;17.20;;
9214;SDS011;4642;51.364;6.788;2023-06-22T09:21:12;19.70;;;17.57;;
9214;SDS011;4642;51.364;6.788;2023-06-22T09:23:37;18.53;;;16.43;;
9214;SDS011;4642;51.364;6.788;2023-06-22T09:26:03;24.13;;;17.10;;
9214;SDS011;4642;51.364;6.788;2023-06-22T09:28:29;18.27;;;15.53;;
9214;SDS011;4642;51.364;6.788;2023-06-22T09:30:54;16.73;;;14.27;;
9214;SDS011;4642;51.364;6.788;2023-06-22T09:33:23;17.30;;;15.13;;
9214;SDS011;4642;51.364;6.788;2023-06-22T09:35:49;15.60;;;13.63;;
9214;SDS011;4642;51.364;6.788;2023-06-22T09:38:15;18.07;;;16.17;;
9214;SDS011;4642;51.364;6.788;2023-06-22T09:40:41;17.43;;;13.10;;
9214;SDS011;4642;51.364;6.788;2023-06-22T09:43:07;14.73;;;13.03;;
9214;SDS011;4642;51.364;6.788;2023-06-22T09:45:32;16.37;;;14.73;;
9214;SDS011;4642;51.364;6.788;2023-06-22T09:47:58;20.10;;;14.13;;
9214;SDS011;4642;51.364;6.788;2023-06-22T09:50:23;15.13;;;13.60;;
9214;SDS011;4642;51.364;6.788;2023-06-22T09:52:49;15.13;;;13.30;;
9214;SDS011;4642;51.364;6.788;2023-06-22T09:55:19;14.80;;;12.10;;
9214;SDS011;4642;51.364;6.788;2023-06-22T09:57:45;13.07;;;11.30;;
9214;SDS011;4642;51.364;6.788;2023-06-22T10:00:11;13.47;;;12.03;;
9214;SDS011;4642;51.364;6.788;2023-06-22T10:02:38;13.10;;;11.43;;
9214;SDS011;4642;51.364;6.788;2023-06-22T10:05:04;14.10;;;10.73;;
9214;SDS011;4642;51.364;6.788;2023-06-22T10:07:30;13.70;;;10.50;;
9214;SDS011;4642;51.364;6.788;2023-06-22T10:09:56;12.47;;;10.50;;
9214;SDS011;4642;51.364;6.788;2023-06-22T10:12:21;14.87;;;10.07;;
9214;SDS011;4642;51.364;6.788;2023-06-22T10:14:47;10.37;;;9.27;;
9214;SDS011;4642;51.364;6.788;2023-06-22T10:17:12;12.43;;;9.17;;
9214;SDS011;4642;51.364;6.788;2023-06-22T10:19:38;14.73;;;10.40;;
9214;SDS011;4642;51.364;6.788;2023-06-22T10:22:04;12.37;;;9.23;;
9214;SDS011;4642;51.364;6.788;2023-06-22T10:24:30;9.73;;;8.83;;
9214;SDS011;4642;51.364;6.788;2023-06-22T10:26:55;9.97;;;8.70;;
9214;SDS011;4642;51.364;6.788;2023-06-22T10:29:21;10.90;;;9.80;;
9214;SDS011;4642;51.364;6.788;2023-06-22T10:31:46;13.30;;;10.33;;
9214;SDS011;4642;51.364;6.788;2023-06-22T10:34:12;11.77;;;9.30;;
9214;SDS011;4642;51.364;6.788;2023-06-22T10:36:38;10.03;;;8.80;;
9214;SDS011;4642;51.364;6.788;2023-06-22T10:39:04;14.37;;;9.80;;
9214;SDS011;4642;51.364;6.788;2023-06-22T10:41:29;11.07;;;8.30;;
9214;SDS011;4642;51.364;6.788;2023-06-22T10:43:55;13.30;;;10.73;;
9214;SDS011;4642;51.364;6.788;2023-06-22T10:46:21;10.77;;;9.67;;
9214;SDS011;4642;51.364;6.788;2023-06-22T10:48:48;10.27;;;9.00;;
9214;SDS011;4642;51.364;6.788;2023-06-22T10:51:14;12.70;;;9.20;;
9214;SDS011;4642;51.364;6.788;2023-06-22T10:53:39;12.50;;;9.87;;
9214;SDS011;4642;51.364;6.788;2023-06-22T10:56:05;12.27;;;10.20;;
9214;SDS011;4642;51.364;6.788;2023-06-22T10:58:31;10.73;;;9.63;;
9214;SDS011;4642;51.364;6.788;2023-06-22T11:00:56;9.77;;;8.77;;
9214;SDS011;4642;51.364;6.788;2023-06-22T11:03:24;11.20;;;10.00;;
9214;SDS011;4642;51.364;6.788;2023-06-22T11:05:49;14.47;;;8.57;;
9214;SDS011;4642;51.364;6.788;2023-06-22T11:08:15;11.17;;;8.73;;
9214;SDS011;4642;51.364;6.788;2023-06-22T11:10:40;12.60;;;9.97;;
9214;SDS011;4642;51.364;6.788;2023-06-22T11:13:06;10.23;;;9.23;;
9214;SDS011;4642;51.364;6.788;2023-06-22T11:15:34;13.33;;;9.90;;
9214;SDS011;4642;51.364;6.788;2023-06-22T11:18:00;13.03;;;10.10;;
9214;SDS011;4642;51.364;6.788;2023-06-22T11:20:25;14.20;;;11.53;;
9214;SDS011;4642;51.364;6.788;2023-06-22T11:22:51;16.80;;;12.90;;
9214;SDS011;4642;51.364;6.788;2023-06-22T11:25:16;18.17;;;12.90;;
9214;SDS011;4642;51.364;6.788;2023-06-22T11:27:42;17.30;;;15.43;;
9214;SDS011;4642;51.364;6.788;2023-06-22T11:30:07;20.47;;;16.33;;
9214;SDS011;4642;51.364;6.788;2023-06-22T11:32:33;17.93;;;15.50;;
9214;SDS011;4642;51.364;6.788;2023-06-22T11:34:59;19.60;;;17.47;;
9214;SDS011;4642;51.364;6.788;2023-06-22T11:37:25;20.43;;;16.20;;
9214;SDS011;4642;51.364;6.788;2023-06-22T11:39:51;25.60;;;18.50;;
9214;SDS011;4642;51.364;6.788;2023-06-22T11:42:16;22.37;;;19.37;;
9214;SDS011;4642;51.364;6.788;2023-06-22T11:44:42;22.13;;;19.63;;
9214;SDS011;4642;51.364;6.788;2023-06-22T11:47:09;24.50;;;19.70;;
9214;SDS011;4642;51.364;6.788;2023-06-22T11:49:34;24.53;;;20.40;;
9214;SDS011;4642;51.364;6.788;2023-06-22T11:52:00;24.87;;;20.10;;
9214;SDS011;4642;51.364;6.788;2023-06-22T11:54:25;24.80;;;20.87;;
9214;SDS011;4642;51.364;6.788;2023-06-22T11:56:51;24.10;;;20.90;;
9214;SDS011;4642;51.364;6.788;2023-06-22T11:59:16;26.80;;;21.70;;
9214;SDS011;4642;51.364;6.788;2023-06-22T12:01:42;27.90;;;21.40;;
9214;SDS011;4642;51.364;6.788;2023-06-22T12:04:07;26.33;;;22.40;;
9214;SDS011;4642;51.364;6.788;2023-06-22T12:06:37;28.83;;;22.07;;
9214;SDS011;4642;51.364;6.788;2023-06-22T12:09:06;26.47;;;22.27;;
9214;SDS011;4642;51.364;6.788;2023-06-22T12:11:31;28.47;;;22.87;;
9214;SDS011;4642;51.364;6.788;2023-06-22T12:13:57;28.93;;;24.83;;
9214;SDS011;4642;51.364;6.788;2023-06-22T12:16:26;30.03;;;25.40;;
9214;SDS011;4642;51.364;6.788;2023-06-22T12:18:52;31.60;;;24.83;;
9214;SDS011;4642;51.364;6.788;2023-06-22T12:21:18;28.33;;;24.17;;
9214;SDS011;4642;51.364;6.788;2023-06-22T12:23:44;29.93;;;26.57;;
9214;SDS011;4642;51.364;6.788;2023-06-22T12:26:09;31.60;;;24.80;;
9214;SDS011;4642;51.364;6.788;2023-06-22T12:28:35;31.40;;;26.60;;
9214;SDS011;4642;51.364;6.788;2023-06-22T12:31:01;30.37;;;26.97;;
9214;SDS011;4642;51.364;6.788;2023-06-22T12:33:26;30.37;;;25.67;;
9214;SDS011;4642;51.364;6.788;2023-06-22T12:35:51;30.03;;;26.83;;
9214;SDS011;4642;51.364;6.788;2023-06-22T12:38:17;29.37;;;26.47;;
9214;SDS011;4642;51.364;6.788;2023-06-22T12:40:43;28.27;;;25.27;;
9214;SDS011;4642;51.364;6.788;2023-06-22T12:43:08;29.43;;;26.50;;
9214;SDS011;4642;51.364;6.788;2023-06-22T12:45:34;32.73;;;28.30;;
9214;SDS011;4642;51.364;6.788;2023-06-22T12:48:00;32.80;;;27.40;;
9214;SDS011;4642;51.364;6.788;2023-06-22T12:50:25;28.60;;;25.33;;
9214;SDS011;4642;51.364;6.788;2023-06-22T12:52:51;29.83;;;25.67;;
9214;SDS011;4642;51.364;6.788;2023-06-22T12:55:17;29.40;;;26.37;;
9214;SDS011;4642;51.364;6.788;2023-06-22T12:57:42;34.03;;;28.00;;
9214;SDS011;4642;51.364;6.788;2023-06-22T13:00:08;31.17;;;27.43;;
9214;SDS011;4642;51.364;6.788;2023-06-22T13:02:37;31.73;;;28.13;;
9214;SDS011;4642;51.364;6.788;2023-06-22T13:05:02;30.57;;;26.47;;
9214;SDS011;4642;51.364;6.788;2023-06-22T13:07:30;29.83;;;26.73;;
9214;SDS011;4642;51.364;6.788;2023-06-22T13:09:55;33.53;;;30.03;;
9214;SDS011;4642;51.364;6.788;2023-06-22T13:12:21;32.00;;;28.63;;
9214;SDS011;4642;51.364;6.788;2023-06-22T13:14:46;32.87;;;29.10;;
9214;SDS011;4642;51.364;6.788;2023-06-22T13:17:12;34.03;;;30.33;;
9214;SDS011;4642;51.364;6.788;2023-06-22T13:19:38;33.23;;;29.73;;
9214;SDS011;4642;51.364;6.788;2023-06-22T13:22:04;34.57;;;30.83;;
9214;SDS011;4642;51.364;6.788;2023-06-22T13:24:30;35.03;;;31.30;;
9214;SDS011;4642;51.364;6.788;2023-06-22T13:26:56;33.40;;;29.80;;
9214;SDS011;4642;51.364;6.788;2023-06-22T13:29:21;37.43;;;30.97;;
9214;SDS011;4642;51.364;6.788;2023-06-22T13:31:47;34.87;;;30.20;;
9214;SDS011;4642;51.364;6.788;2023-06-22T13:34:12;39.83;;;31.97;;
9214;SDS011;4642;51.364;6.788;2023-06-22T13:36:38;35.87;;;32.10;;
9214;SDS011;4642;51.364;6.788;2023-06-22T13:39:03;38.97;;;33.50;;
9214;SDS011;4642;51.364;6.788;2023-06-22T13:41:29;38.03;;;33.50;;
9214;SDS011;4642;51.364;6.788;2023-06-22T13:43:54;37.80;;;33.70;;
9214;SDS011;4642;51.364;6.788;2023-06-22T13:46:20;39.70;;;34.10;;
9214;SDS011;4642;51.364;6.788;2023-06-22T13:48:45;40.30;;;34.13;;
9214;SDS011;4642;51.364;6.788;2023-06-22T13:51:11;39.83;;;34.90;;
9214;SDS011;4642;51.364;6.788;2023-06-22T13:53:37;35.83;;;31.93;;
9214;SDS011;4642;51.364;6.788;2023-06-22T13:56:03;36.93;;;33.13;;
9214;SDS011;4642;51.364;6.788;2023-06-22T13:58:28;36.97;;;32.93;;
9214;SDS011;4642;51.364;6.788;2023-06-22T14:00:54;35.67;;;31.73;;
9214;SDS011;4642;51.364;6.788;2023-06-22T14:03:19;36.37;;;32.47;;
9214;SDS011;4642;51.364;6.788;2023-06-22T14:05:45;35.17;;;31.43;;
9214;SDS011;4642;51.364;6.788;2023-06-22T14:08:11;33.57;;;30.07;;
9214;SDS011;4642;51.364;6.788;2023-06-22T14:10:37;35.63;;;31.83;;
9214;SDS011;4642;51.364;6.788;2023-06-22T14:13:02;33.63;;;30.13;;
9214;SDS011;4642;51.364;6.788;2023-06-22T14:15:30;33.10;;;29.80;;
9214;SDS011;4642;51.364;6.788;2023-06-22T14:17:57;32.47;;;29.10;;
9214;SDS011;4642;51.364;6.788;2023-06-22T14:20:22;33.33;;;29.83;;
9214;SDS011;4642;51.364;6.788;2023-06-22T14:22:48;34.10;;;29.77;;
9214;SDS011;4642;51.364;6.788;2023-06-22T14:25:13;34.50;;;30.73;;
9214;SDS011;4642;51.364;6.788;2023-06-22T14:27:39;31.33;;;28.20;;
9214;SDS011;4642;51.364;6.788;2023-06-22T14:30:04;33.60;;;30.13;;
9214;SDS011;4642;51.364;6.788;2023-06-22T14:32:30;31.40;;;28.10;;
9214;SDS011;4642;51.364;6.788;2023-06-22T14:34:56;32.07;;;28.67;;
9214;SDS011;4642;51.364;6.788;2023-06-22T14:37:22;33.27;;;29.67;;
9214;SDS011;4642;51.364;6.788;2023-06-22T14:39:47;31.93;;;28.57;;
9214;SDS011;4642;51.364;6.788;2023-06-22T14:42:13;31.67;;;28.43;;
9214;SDS011;4642;51.364;6.788;2023-06-22T14:44:38;32.30;;;29.00;;
9214;SDS011;4642;51.364;6.788;2023-06-22T14:47:04;33.80;;;30.23;;
9214;SDS011;4642;51.364;6.788;2023-06-22T14:49:29;32.17;;;28.87;;
9214;SDS011;4642;51.364;6.788;2023-06-22T14:51:55;31.17;;;28.07;;
9214;SDS011;4642;51.364;6.788;2023-06-22T14:54:21;31.40;;;28.27;;
9214;SDS011;4642;51.364;6.788;2023-06-22T14:56:47;30.80;;;27.23;;
9214;SDS011;4642;51.364;6.788;2023-06-22T14:59:13;31.73;;;28.33;;
9214;SDS011;4642;51.364;6.788;2023-06-22T15:01:38;30.60;;;27.43;;